Decoded Metar for GCHI (HIERRO in SPAIN) (IATA:VDE) | Meteo·Mobile Aviation Weather
aviador You're here:

GCHI Decoded Metar

HIERRO in SPAIN
Report Time2019-04-23 08:00:00
UTC Time2019-04-23 08:32:04
Flight Rules vfr VFR
Wind330° at 18 kt
W.Decomp.*RWY 34: 18.0 kt HW 0.9 kt LCW
Visibility9999 m
Phenomena:N/A
Clouds:Scattered 030 Hf
Expected CloudBase > 2,400 ft AGL from Temp-Dew spread
CeilingNone
Temp19°C (ISA +4)
Dew Point13°C (68% RH)
AAT13.4°C
QNH1014 hPa
Density Alt758 ft
Elevation98 ft
Report Wrong Elevation
Raw Report
GCHI 230800Z 33018KT 310V020 9999 SCT030 19/13 Q1014=

Extra information for GCHI:More info

Metar Taf Metar & Taf Last 4 Metars F.Rules Stats Wind Profile Meteogram Temp Stats Airport Information Weather charts Add Link Nearby VenuesMetar ALERT Operation Metar Decoded Social comments